sensor_id;sensor_type;location;lat;lon;timestamp;temperature;humidity
30037;DHT22;36325;51.512;-0.382;2024-02-28T00:00:12;7.80;99.90
30037;DHT22;36325;51.512;-0.382;2024-02-28T00:02:40;7.90;99.90
30037;DHT22;36325;51.512;-0.382;2024-02-28T00:05:07;7.90;99.90
30037;DHT22;36325;51.512;-0.382;2024-02-28T00:07:35;8.00;99.90
30037;DHT22;36325;51.512;-0.382;2024-02-28T00:10:03;8.00;99.90
30037;DHT22;36325;51.512;-0.382;2024-02-28T00:12:30;8.00;99.90
30037;DHT22;36325;51.512;-0.382;2024-02-28T00:14:58;8.00;99.90
30037;DHT22;36325;51.512;-0.382;2024-02-28T00:17:25;8.10;99.90
30037;DHT22;36325;51.512;-0.382;2024-02-28T00:19:52;8.10;99.90
30037;DHT22;36325;51.512;-0.382;2024-02-28T00:22:20;8.10;99.90
30037;DHT22;36325;51.512;-0.382;2024-02-28T00:24:48;8.10;99.90
30037;DHT22;36325;51.512;-0.382;2024-02-28T00:27:15;8.10;99.90
30037;DHT22;36325;51.512;-0.382;2024-02-28T00:29:43;8.00;99.90
30037;DHT22;36325;51.512;-0.382;2024-02-28T00:32:11;8.00;99.90
30037;DHT22;36325;51.512;-0.382;2024-02-28T00:34:39;7.90;99.90
30037;DHT22;36325;51.512;-0.382;2024-02-28T00:37:08;7.90;99.90
30037;DHT22;36325;51.512;-0.382;2024-02-28T00:39:35;7.80;99.90
30037;DHT22;36325;51.512;-0.382;2024-02-28T00:42:02;7.80;99.90
30037;DHT22;36325;51.512;-0.382;2024-02-28T00:44:30;7.80;99.90
30037;DHT22;36325;51.512;-0.382;2024-02-28T00:46:57;7.80;99.90
30037;DHT22;36325;51.512;-0.382;2024-02-28T00:49:27;7.90;99.90
30037;DHT22;36325;51.512;-0.382;2024-02-28T00:51:54;7.90;99.90
30037;DHT22;36325;51.512;-0.382;2024-02-28T00:54:21;7.90;99.90
30037;DHT22;36325;51.512;-0.382;2024-02-28T00:56:50;8.00;99.90
30037;DHT22;36325;51.512;-0.382;2024-02-28T00:59:18;8.00;99.90
30037;DHT22;36325;51.512;-0.382;2024-02-28T01:01:45;8.10;99.90
30037;DHT22;36325;51.512;-0.382;2024-02-28T01:04:12;8.10;99.90
30037;DHT22;36325;51.512;-0.382;2024-02-28T01:06:39;8.10;99.90
30037;DHT22;36325;51.512;-0.382;2024-02-28T01:09:06;8.20;99.90
30037;DHT22;36325;51.512;-0.382;2024-02-28T01:11:33;8.10;99.90
30037;DHT22;36325;51.512;-0.382;2024-02-28T01:14:01;8.20;99.90
30037;DHT22;36325;51.512;-0.382;2024-02-28T01:16:28;8.10;99.90
30037;DHT22;36325;51.512;-0.382;2024-02-28T01:18:56;8.10;99.90
30037;DHT22;36325;51.512;-0.382;2024-02-28T01:21:23;8.00;99.90
30037;DHT22;36325;51.512;-0.382;2024-02-28T01:23:51;8.00;99.90
30037;DHT22;36325;51.512;-0.382;2024-02-28T01:26:19;7.90;99.90
30037;DHT22;36325;51.512;-0.382;2024-02-28T01:28:49;7.90;99.90
30037;DHT22;36325;51.512;-0.382;2024-02-28T01:31:17;7.80;99.90
30037;DHT22;36325;51.512;-0.382;2024-02-28T01:33:45;7.80;99.90
30037;DHT22;36325;51.512;-0.382;2024-02-28T01:36:16;7.80;99.90
30037;DHT22;36325;51.512;-0.382;2024-02-28T01:38:45;7.80;99.90
30037;DHT22;36325;51.512;-0.382;2024-02-28T01:41:13;7.70;99.90
30037;DHT22;36325;51.512;-0.382;2024-02-28T01:43:41;7.60;99.90
30037;DHT22;36325;51.512;-0.382;2024-02-28T01:46:15;7.60;99.90
30037;DHT22;36325;51.512;-0.382;2024-02-28T01:48:46;7.50;99.90
30037;DHT22;36325;51.512;-0.382;2024-02-28T01:51:14;7.40;99.90
30037;DHT22;36325;51.512;-0.382;2024-02-28T01:53:41;7.40;99.90
30037;DHT22;36325;51.512;-0.382;2024-02-28T01:56:11;7.30;99.90
30037;DHT22;36325;51.512;-0.382;2024-02-28T01:58:38;7.20;99.90
30037;DHT22;36325;51.512;-0.382;2024-02-28T02:01:06;7.00;99.90
30037;DHT22;36325;51.512;-0.382;2024-02-28T02:03:34;7.00;99.90
30037;DHT22;36325;51.512;-0.382;2024-02-28T02:06:02;7.00;99.90
30037;DHT22;36325;51.512;-0.382;2024-02-28T02:08:29;6.90;99.90
30037;DHT22;36325;51.512;-0.382;2024-02-28T02:10:57;6.90;99.90
30037;DHT22;36325;51.512;-0.382;2024-02-28T02:13:24;6.80;99.90
30037;DHT22;36325;51.512;-0.382;2024-02-28T02:15:52;6.80;99.90
30037;DHT22;36325;51.512;-0.382;2024-02-28T02:18:19;6.80;99.90
30037;DHT22;36325;51.512;-0.382;2024-02-28T02:20:50;6.80;99.90
30037;DHT22;36325;51.512;-0.382;2024-02-28T02:23:21;6.80;99.90
30037;DHT22;36325;51.512;-0.382;2024-02-28T02:25:49;6.80;99.90
30037;DHT22;36325;51.512;-0.382;2024-02-28T02:28:16;6.80;99.90
30037;DHT22;36325;51.512;-0.382;2024-02-28T02:30:44;6.90;99.90
30037;DHT22;36325;51.512;-0.382;2024-02-28T02:33:12;6.90;99.90
30037;DHT22;36325;51.512;-0.382;2024-02-28T02:35:39;6.90;99.90
30037;DHT22;36325;51.512;-0.382;2024-02-28T02:38:06;6.90;99.90
30037;DHT22;36325;51.512;-0.382;2024-02-28T02:40:34;6.90;99.90
30037;DHT22;36325;51.512;-0.382;2024-02-28T02:43:01;7.00;99.90
30037;DHT22;36325;51.512;-0.382;2024-02-28T02:45:28;7.00;99.90
30037;DHT22;36325;51.512;-0.382;2024-02-28T02:47:55;7.00;99.90
30037;DHT22;36325;51.512;-0.382;2024-02-28T02:50:23;7.10;99.90
30037;DHT22;36325;51.512;-0.382;2024-02-28T02:52:50;7.20;99.90
30037;DHT22;36325;51.512;-0.382;2024-02-28T02:55:17;7.20;99.90
30037;DHT22;36325;51.512;-0.382;2024-02-28T02:57:44;7.30;99.90
30037;DHT22;36325;51.512;-0.382;2024-02-28T03:00:13;7.40;99.90
30037;DHT22;36325;51.512;-0.382;2024-02-28T03:02:40;7.40;99.90
30037;DHT22;36325;51.512;-0.382;2024-02-28T03:05:08;7.40;99.90
30037;DHT22;36325;51.512;-0.382;2024-02-28T03:07:35;7.50;99.90
30037;DHT22;36325;51.512;-0.382;2024-02-28T03:10:03;7.50;99.90
30037;DHT22;36325;51.512;-0.382;2024-02-28T03:12:30;7.50;99.90
30037;DHT22;36325;51.512;-0.382;2024-02-28T03:14:58;7.50;99.90
30037;DHT22;36325;51.512;-0.382;2024-02-28T03:17:25;7.40;99.90
30037;DHT22;36325;51.512;-0.382;2024-02-28T03:19:53;7.40;99.90
30037;DHT22;36325;51.512;-0.382;2024-02-28T03:22:20;7.30;99.90
30037;DHT22;36325;51.512;-0.382;2024-02-28T03:24:48;7.30;99.90
30037;DHT22;36325;51.512;-0.382;2024-02-28T03:27:15;7.30;99.90
30037;DHT22;36325;51.512;-0.382;2024-02-28T03:29:42;7.30;99.90
30037;DHT22;36325;51.512;-0.382;2024-02-28T03:32:10;7.30;99.90
30037;DHT22;36325;51.512;-0.382;2024-02-28T03:34:37;7.20;99.90
30037;DHT22;36325;51.512;-0.382;2024-02-28T03:37:04;7.30;99.90
30037;DHT22;36325;51.512;-0.382;2024-02-28T03:39:32;7.30;99.90
30037;DHT22;36325;51.512;-0.382;2024-02-28T03:41:59;7.20;99.90
30037;DHT22;36325;51.512;-0.382;2024-02-28T03:44:26;7.20;99.90
30037;DHT22;36325;51.512;-0.382;2024-02-28T03:46:53;7.20;99.90
30037;DHT22;36325;51.512;-0.382;2024-02-28T03:49:21;7.30;99.90
30037;DHT22;36325;51.512;-0.382;2024-02-28T03:51:48;7.20;99.90
30037;DHT22;36325;51.512;-0.382;2024-02-28T03:54:15;7.30;99.90
30037;DHT22;36325;51.512;-0.382;2024-02-28T03:56:42;7.30;99.90
30037;DHT22;36325;51.512;-0.382;2024-02-28T03:59:09;7.30;99.90
30037;DHT22;36325;51.512;-0.382;2024-02-28T04:01:36;7.20;99.90
30037;DHT22;36325;51.512;-0.382;2024-02-28T04:04:05;7.20;99.90
30037;DHT22;36325;51.512;-0.382;2024-02-28T04:06:32;7.20;99.90
30037;DHT22;36325;51.512;-0.382;2024-02-28T04:09:00;7.30;99.90
30037;DHT22;36325;51.512;-0.382;2024-02-28T04:11:27;7.40;99.90
30037;DHT22;36325;51.512;-0.382;2024-02-28T04:13:55;7.40;99.90
30037;DHT22;36325;51.512;-0.382;2024-02-28T04:16:22;7.50;99.90
30037;DHT22;36325;51.512;-0.382;2024-02-28T04:18:49;7.50;99.90
30037;DHT22;36325;51.512;-0.382;2024-02-28T04:21:16;7.50;99.90
30037;DHT22;36325;51.512;-0.382;2024-02-28T04:23:44;7.60;99.90
30037;DHT22;36325;51.512;-0.382;2024-02-28T04:26:13;7.60;99.90
30037;DHT22;36325;51.512;-0.382;2024-02-28T04:28:42;7.70;99.90
30037;DHT22;36325;51.512;-0.382;2024-02-28T04:31:10;7.70;99.90
30037;DHT22;36325;51.512;-0.382;2024-02-28T04:33:39;7.70;99.90
30037;DHT22;36325;51.512;-0.382;2024-02-28T04:36:06;7.80;99.90
30037;DHT22;36325;51.512;-0.382;2024-02-28T04:38:34;7.80;99.90
30037;DHT22;36325;51.512;-0.382;2024-02-28T04:41:02;7.80;99.90
30037;DHT22;36325;51.512;-0.382;2024-02-28T04:43:30;7.80;99.90
30037;DHT22;36325;51.512;-0.382;2024-02-28T04:45:57;7.80;99.90
30037;DHT22;36325;51.512;-0.382;2024-02-28T04:48:25;7.90;99.90
30037;DHT22;36325;51.512;-0.382;2024-02-28T04:50:52;7.90;99.90
30037;DHT22;36325;51.512;-0.382;2024-02-28T04:53:19;7.90;99.90
30037;DHT22;36325;51.512;-0.382;2024-02-28T04:55:47;8.00;99.90
30037;DHT22;36325;51.512;-0.382;2024-02-28T04:58:15;7.90;99.90
30037;DHT22;36325;51.512;-0.382;2024-02-28T05:00:42;8.00;99.90
30037;DHT22;36325;51.512;-0.382;2024-02-28T05:03:09;8.00;99.90
30037;DHT22;36325;51.512;-0.382;2024-02-28T05:05:37;8.00;99.90
30037;DHT22;36325;51.512;-0.382;2024-02-28T05:08:04;8.00;99.90
30037;DHT22;36325;51.512;-0.382;2024-02-28T05:10:31;8.00;99.90
30037;DHT22;36325;51.512;-0.382;2024-02-28T05:12:58;8.00;99.90
30037;DHT22;36325;51.512;-0.382;2024-02-28T05:15:26;8.00;99.90
30037;DHT22;36325;51.512;-0.382;2024-02-28T05:17:54;8.10;99.90
30037;DHT22;36325;51.512;-0.382;2024-02-28T05:20:21;8.10;99.90
30037;DHT22;36325;51.512;-0.382;2024-02-28T05:22:48;8.00;99.90
30037;DHT22;36325;51.512;-0.382;2024-02-28T05:25:15;8.10;99.90
30037;DHT22;36325;51.512;-0.382;2024-02-28T05:27:43;8.10;99.90
30037;DHT22;36325;51.512;-0.382;2024-02-28T05:30:10;8.10;99.90
30037;DHT22;36325;51.512;-0.382;2024-02-28T05:32:37;8.20;99.90
30037;DHT22;36325;51.512;-0.382;2024-02-28T05:35:05;8.10;99.90
30037;DHT22;36325;51.512;-0.382;2024-02-28T05:37:32;8.20;99.90
30037;DHT22;36325;51.512;-0.382;2024-02-28T05:42:30;8.20;99.90
30037;DHT22;36325;51.512;-0.382;2024-02-28T05:44:58;8.10;99.90
30037;DHT22;36325;51.512;-0.382;2024-02-28T05:47:25;8.20;99.90
30037;DHT22;36325;51.512;-0.382;2024-02-28T05:49:53;8.20;99.90
30037;DHT22;36325;51.512;-0.382;2024-02-28T05:52:22;8.30;99.90
30037;DHT22;36325;51.512;-0.382;2024-02-28T05:54:50;8.30;99.90
30037;DHT22;36325;51.512;-0.382;2024-02-28T05:57:17;8.30;99.90
30037;DHT22;36325;51.512;-0.382;2024-02-28T05:59:44;8.30;99.90
30037;DHT22;36325;51.512;-0.382;2024-02-28T06:02:12;8.30;99.90
30037;DHT22;36325;51.512;-0.382;2024-02-28T06:04:39;8.30;99.90
30037;DHT22;36325;51.512;-0.382;2024-02-28T06:07:07;8.40;99.90
30037;DHT22;36325;51.512;-0.382;2024-02-28T06:09:34;8.30;99.90
30037;DHT22;36325;51.512;-0.382;2024-02-28T06:12:02;8.40;99.90
30037;DHT22;36325;51.512;-0.382;2024-02-28T06:14:30;8.40;99.90
30037;DHT22;36325;51.512;-0.382;2024-02-28T06:16:58;8.30;99.90
30037;DHT22;36325;51.512;-0.382;2024-02-28T06:19:25;8.30;99.90
30037;DHT22;36325;51.512;-0.382;2024-02-28T06:21:53;8.30;99.90
30037;DHT22;36325;51.512;-0.382;2024-02-28T06:24:22;8.20;99.90
30037;DHT22;36325;51.512;-0.382;2024-02-28T06:26:50;8.30;99.90
30037;DHT22;36325;51.512;-0.382;2024-02-28T06:29:18;8.30;99.90
30037;DHT22;36325;51.512;-0.382;2024-02-28T06:31:50;8.30;99.90
30037;DHT22;36325;51.512;-0.382;2024-02-28T06:34:18;8.30;99.90
30037;DHT22;36325;51.512;-0.382;2024-02-28T06:36:45;8.30;99.90
30037;DHT22;36325;51.512;-0.382;2024-02-28T06:39:13;8.30;99.90
30037;DHT22;36325;51.512;-0.382;2024-02-28T06:41:40;8.30;99.90
30037;DHT22;36325;51.512;-0.382;2024-02-28T06:44:09;8.30;99.90
30037;DHT22;36325;51.512;-0.382;2024-02-28T06:46:37;8.30;99.90
30037;DHT22;36325;51.512;-0.382;2024-02-28T06:49:04;8.30;99.90
30037;DHT22;36325;51.512;-0.382;2024-02-28T06:51:32;8.30;99.90
30037;DHT22;36325;51.512;-0.382;2024-02-28T06:54:01;8.40;99.90
30037;DHT22;36325;51.512;-0.382;2024-02-28T06:56:30;8.40;99.90
30037;DHT22;36325;51.512;-0.382;2024-02-28T06:58:57;8.40;99.90
30037;DHT22;36325;51.512;-0.382;2024-02-28T07:01:25;8.40;99.90
30037;DHT22;36325;51.512;-0.382;2024-02-28T07:03:52;8.40;99.90
30037;DHT22;36325;51.512;-0.382;2024-02-28T07:06:20;8.40;99.90
30037;DHT22;36325;51.512;-0.382;2024-02-28T07:08:48;8.40;99.90
30037;DHT22;36325;51.512;-0.382;2024-02-28T07:11:15;8.40;99.90
30037;DHT22;36325;51.512;-0.382;2024-02-28T07:13:43;8.50;99.90
30037;DHT22;36325;51.512;-0.382;2024-02-28T07:16:10;8.40;99.90
30037;DHT22;36325;51.512;-0.382;2024-02-28T07:18:38;8.50;99.90
30037;DHT22;36325;51.512;-0.382;2024-02-28T07:21:08;8.50;99.90
30037;DHT22;36325;51.512;-0.382;2024-02-28T07:23:38;8.60;99.90
30037;DHT22;36325;51.512;-0.382;2024-02-28T07:26:07;8.60;99.90
30037;DHT22;36325;51.512;-0.382;2024-02-28T07:28:38;8.60;99.90
30037;DHT22;36325;51.512;-0.382;2024-02-28T07:31:05;8.70;99.90
30037;DHT22;36325;51.512;-0.382;2024-02-28T07:33:33;8.70;99.90
30037;DHT22;36325;51.512;-0.382;2024-02-28T07:36:01;8.70;99.90
30037;DHT22;36325;51.512;-0.382;2024-02-28T07:38:32;8.80;99.90
30037;DHT22;36325;51.512;-0.382;2024-02-28T07:41:00;8.80;99.90
30037;DHT22;36325;51.512;-0.382;2024-02-28T07:43:27;8.80;99.90
30037;DHT22;36325;51.512;-0.382;2024-02-28T07:45:56;8.80;99.90
30037;DHT22;36325;51.512;-0.382;2024-02-28T07:48:23;8.90;99.90
30037;DHT22;36325;51.512;-0.382;2024-02-28T07:50:50;8.90;99.90
30037;DHT22;36325;51.512;-0.382;2024-02-28T07:53:18;8.90;99.90
30037;DHT22;36325;51.512;-0.382;2024-02-28T07:55:45;8.90;99.90
30037;DHT22;36325;51.512;-0.382;2024-02-28T07:58:14;9.00;99.90
30037;DHT22;36325;51.512;-0.382;2024-02-28T08:00:43;9.00;99.90
30037;DHT22;36325;51.512;-0.382;2024-02-28T08:03:11;9.00;99.90
30037;DHT22;36325;51.512;-0.382;2024-02-28T08:05:39;9.10;99.90
30037;DHT22;36325;51.512;-0.382;2024-02-28T08:08:06;9.10;99.90
30037;DHT22;36325;51.512;-0.382;2024-02-28T08:10:33;9.10;99.90
30037;DHT22;36325;51.512;-0.382;2024-02-28T08:13:02;9.20;99.90
30037;DHT22;36325;51.512;-0.382;2024-02-28T08:15:30;9.20;99.90
30037;DHT22;36325;51.512;-0.382;2024-02-28T08:17:58;9.30;99.90
30037;DHT22;36325;51.512;-0.382;2024-02-28T08:20:25;9.40;99.90
30037;DHT22;36325;51.512;-0.382;2024-02-28T08:22:53;9.40;99.90
30037;DHT22;36325;51.512;-0.382;2024-02-28T08:25:20;9.50;99.90
30037;DHT22;36325;51.512;-0.382;2024-02-28T08:27:47;9.50;99.90
30037;DHT22;36325;51.512;-0.382;2024-02-28T08:30:15;9.60;99.90
30037;DHT22;36325;51.512;-0.382;2024-02-28T08:32:42;9.70;99.90
30037;DHT22;36325;51.512;-0.382;2024-02-28T08:35:10;9.80;99.90
30037;DHT22;36325;51.512;-0.382;2024-02-28T08:37:38;9.90;99.90
30037;DHT22;36325;51.512;-0.382;2024-02-28T08:40:06;10.00;99.90
30037;DHT22;36325;51.512;-0.382;2024-02-28T08:42:34;10.00;99.90
30037;DHT22;36325;51.512;-0.382;2024-02-28T08:45:01;10.10;99.90
30037;DHT22;36325;51.512;-0.382;2024-02-28T08:47:30;10.20;99.90
30037;DHT22;36325;51.512;-0.382;2024-02-28T08:49:57;10.30;99.90
30037;DHT22;36325;51.512;-0.382;2024-02-28T08:52:24;10.50;99.90
30037;DHT22;36325;51.512;-0.382;2024-02-28T08:54:51;10.50;99.90
30037;DHT22;36325;51.512;-0.382;2024-02-28T08:57:20;10.50;99.90
30037;DHT22;36325;51.512;-0.382;2024-02-28T08:59:49;10.40;99.90
30037;DHT22;36325;51.512;-0.382;2024-02-28T09:02:20;10.40;99.90
30037;DHT22;36325;51.512;-0.382;2024-02-28T09:04:47;10.40;99.90
30037;DHT22;36325;51.512;-0.382;2024-02-28T09:07:18;10.40;99.90
30037;DHT22;36325;51.512;-0.382;2024-02-28T09:09:48;10.40;99.90
30037;DHT22;36325;51.512;-0.382;2024-02-28T09:12:16;12.00;99.90
30037;DHT22;36325;51.512;-0.382;2024-02-28T09:14:43;10.50;99.90
30037;DHT22;36325;51.512;-0.382;2024-02-28T09:17:12;10.50;99.90
30037;DHT22;36325;51.512;-0.382;2024-02-28T09:19:39;10.40;99.90
30037;DHT22;36325;51.512;-0.382;2024-02-28T09:22:06;10.50;99.90
30037;DHT22;36325;51.512;-0.382;2024-02-28T09:24:33;10.40;99.90
30037;DHT22;36325;51.512;-0.382;2024-02-28T09:27:03;10.40;99.90
30037;DHT22;36325;51.512;-0.382;2024-02-28T09:29:30;10.40;99.90
30037;DHT22;36325;51.512;-0.382;2024-02-28T09:31:57;10.40;99.90
30037;DHT22;36325;51.512;-0.382;2024-02-28T09:34:25;10.40;99.90
30037;DHT22;36325;51.512;-0.382;2024-02-28T09:36:52;10.40;99.90
30037;DHT22;36325;51.512;-0.382;2024-02-28T09:39:20;10.40;99.90
30037;DHT22;36325;51.512;-0.382;2024-02-28T09:41:48;10.40;99.90
30037;DHT22;36325;51.512;-0.382;2024-02-28T09:44:16;10.40;99.90
30037;DHT22;36325;51.512;-0.382;2024-02-28T09:46:43;10.50;99.90
30037;DHT22;36325;51.512;-0.382;2024-02-28T09:49:11;10.50;99.90
30037;DHT22;36325;51.512;-0.382;2024-02-28T09:51:39;10.50;99.90
30037;DHT22;36325;51.512;-0.382;2024-02-28T09:54:06;10.50;99.90
30037;DHT22;36325;51.512;-0.382;2024-02-28T09:56:33;10.50;99.90
30037;DHT22;36325;51.512;-0.382;2024-02-28T09:59:02;10.50;99.90
30037;DHT22;36325;51.512;-0.382;2024-02-28T10:01:30;10.50;99.90
30037;DHT22;36325;51.512;-0.382;2024-02-28T10:03:57;10.50;99.90
30037;DHT22;36325;51.512;-0.382;2024-02-28T10:06:26;10.50;99.90
30037;DHT22;36325;51.512;-0.382;2024-02-28T10:08:54;10.60;99.90
30037;DHT22;36325;51.512;-0.382;2024-02-28T10:11:21;10.60;99.90
30037;DHT22;36325;51.512;-0.382;2024-02-28T10:13:50;10.60;99.90
30037;DHT22;36325;51.512;-0.382;2024-02-28T10:16:17;10.60;99.90
30037;DHT22;36325;51.512;-0.382;2024-02-28T10:18:45;10.70;99.90
30037;DHT22;36325;51.512;-0.382;2024-02-28T10:21:12;10.70;99.90
30037;DHT22;36325;51.512;-0.382;2024-02-28T10:23:42;10.70;99.90
30037;DHT22;36325;51.512;-0.382;2024-02-28T10:26:09;10.80;99.90
30037;DHT22;36325;51.512;-0.382;2024-02-28T10:28:37;10.80;99.90
30037;DHT22;36325;51.512;-0.382;2024-02-28T10:31:05;10.90;99.90
30037;DHT22;36325;51.512;-0.382;2024-02-28T10:33:33;11.10;99.90
30037;DHT22;36325;51.512;-0.382;2024-02-28T10:36:03;11.10;99.90
30037;DHT22;36325;51.512;-0.382;2024-02-28T10:38:31;11.30;99.90
30037;DHT22;36325;51.512;-0.382;2024-02-28T10:41:00;11.30;99.90
30037;DHT22;36325;51.512;-0.382;2024-02-28T10:43:29;11.40;99.90
30037;DHT22;36325;51.512;-0.382;2024-02-28T10:45:57;11.40;99.90
30037;DHT22;36325;51.512;-0.382;2024-02-28T10:48:30;11.50;99.90
30037;DHT22;36325;51.512;-0.382;2024-02-28T10:50:59;11.50;99.90
30037;DHT22;36325;51.512;-0.382;2024-02-28T10:53:37;11.50;99.90
30037;DHT22;36325;51.512;-0.382;2024-02-28T10:56:09;11.60;99.90
30037;DHT22;36325;51.512;-0.382;2024-02-28T10:58:50;11.70;99.90
30037;DHT22;36325;51.512;-0.382;2024-02-28T11:01:18;11.70;99.90
30037;DHT22;36325;51.512;-0.382;2024-02-28T11:03:48;11.80;99.90
30037;DHT22;36325;51.512;-0.382;2024-02-28T11:06:19;11.80;99.90
30037;DHT22;36325;51.512;-0.382;2024-02-28T11:08:48;11.80;99.90
30037;DHT22;36325;51.512;-0.382;2024-02-28T11:11:20;11.70;99.90
30037;DHT22;36325;51.512;-0.382;2024-02-28T11:13:55;11.60;99.90
30037;DHT22;36325;51.512;-0.382;2024-02-28T11:16:32;11.80;99.90
30037;DHT22;36325;51.512;-0.382;2024-02-28T11:19:00;11.80;99.90
30037;DHT22;36325;51.512;-0.382;2024-02-28T11:21:28;11.80;99.90
30037;DHT22;36325;51.512;-0.382;2024-02-28T11:23:58;11.90;99.90
30037;DHT22;36325;51.512;-0.382;2024-02-28T11:26:27;9.00;99.90
30037;DHT22;36325;51.512;-0.382;2024-02-28T11:28:55;12.10;99.90
30037;DHT22;36325;51.512;-0.382;2024-02-28T11:31:23;12.20;99.90
30037;DHT22;36325;51.512;-0.382;2024-02-28T11:33:51;12.50;99.90
30037;DHT22;36325;51.512;-0.382;2024-02-28T11:36:19;12.80;99.90
30037;DHT22;36325;51.512;-0.382;2024-02-28T11:38:46;13.00;99.90
30037;DHT22;36325;51.512;-0.382;2024-02-28T11:41:14;13.20;99.90
30037;DHT22;36325;51.512;-0.382;2024-02-28T11:43:41;13.40;99.90
30037;DHT22;36325;51.512;-0.382;2024-02-28T11:46:15;13.50;99.90
30037;DHT22;36325;51.512;-0.382;2024-02-28T11:48:45;13.50;99.90
30037;DHT22;36325;51.512;-0.382;2024-02-28T11:51:13;13.40;99.90
30037;DHT22;36325;51.512;-0.382;2024-02-28T11:53:41;13.50;99.90
30037;DHT22;36325;51.512;-0.382;2024-02-28T11:56:08;13.60;99.90
30037;DHT22;36325;51.512;-0.382;2024-02-28T11:58:36;13.70;99.90
30037;DHT22;36325;51.512;-0.382;2024-02-28T12:01:03;13.80;99.90
30037;DHT22;36325;51.512;-0.382;2024-02-28T12:03:32;13.80;99.90
30037;DHT22;36325;51.512;-0.382;2024-02-28T12:05:59;13.70;99.90
30037;DHT22;36325;51.512;-0.382;2024-02-28T12:08:27;13.60;99.90
30037;DHT22;36325;51.512;-0.382;2024-02-28T12:11:05;13.60;99.90
30037;DHT22;36325;51.512;-0.382;2024-02-28T12:13:36;13.60;99.90
30037;DHT22;36325;51.512;-0.382;2024-02-28T12:16:04;13.30;99.90
30037;DHT22;36325;51.512;-0.382;2024-02-28T12:18:32;13.30;99.90
30037;DHT22;36325;51.512;-0.382;2024-02-28T12:20:59;13.40;99.90
30037;DHT22;36325;51.512;-0.382;2024-02-28T12:23:27;13.50;99.90
30037;DHT22;36325;51.512;-0.382;2024-02-28T12:25:54;13.60;99.90
30037;DHT22;36325;51.512;-0.382;2024-02-28T12:28:22;13.50;99.90
30037;DHT22;36325;51.512;-0.382;2024-02-28T12:30:50;13.50;99.90
30037;DHT22;36325;51.512;-0.382;2024-02-28T12:33:20;13.40;99.90
30037;DHT22;36325;51.512;-0.382;2024-02-28T12:35:48;13.20;99.90
30037;DHT22;36325;51.512;-0.382;2024-02-28T12:38:17;13.10;99.90
30037;DHT22;36325;51.512;-0.382;2024-02-28T12:40:45;13.10;99.90
30037;DHT22;36325;51.512;-0.382;2024-02-28T12:43:12;13.10;99.90
30037;DHT22;36325;51.512;-0.382;2024-02-28T12:45:41;13.10;99.90
30037;DHT22;36325;51.512;-0.382;2024-02-28T12:48:11;13.20;99.90
30037;DHT22;36325;51.512;-0.382;2024-02-28T12:50:39;13.40;99.90
30037;DHT22;36325;51.512;-0.382;2024-02-28T12:53:06;13.30;99.90
30037;DHT22;36325;51.512;-0.382;2024-02-28T12:55:34;13.30;99.90
30037;DHT22;36325;51.512;-0.382;2024-02-28T12:58:01;13.20;99.90
30037;DHT22;36325;51.512;-0.382;2024-02-28T13:00:32;13.10;99.90
30037;DHT22;36325;51.512;-0.382;2024-02-28T13:03:00;13.20;99.90
30037;DHT22;36325;51.512;-0.382;2024-02-28T13:05:27;13.20;99.90
30037;DHT22;36325;51.512;-0.382;2024-02-28T13:07:57;13.30;99.90
30037;DHT22;36325;51.512;-0.382;2024-02-28T13:10:24;13.30;99.90
30037;DHT22;36325;51.512;-0.382;2024-02-28T13:12:52;13.20;99.90
30037;DHT22;36325;51.512;-0.382;2024-02-28T13:15:19;13.20;99.90
30037;DHT22;36325;51.512;-0.382;2024-02-28T13:17:47;13.30;99.90
30037;DHT22;36325;51.512;-0.382;2024-02-28T13:20:16;13.20;99.90
30037;DHT22;36325;51.512;-0.382;2024-02-28T13:22:44;13.30;99.90
30037;DHT22;36325;51.512;-0.382;2024-02-28T13:25:11;13.20;99.90
30037;DHT22;36325;51.512;-0.382;2024-02-28T13:27:41;13.40;99.90
30037;DHT22;36325;51.512;-0.382;2024-02-28T13:30:08;13.10;99.90
30037;DHT22;36325;51.512;-0.382;2024-02-28T13:32:35;13.10;99.90
30037;DHT22;36325;51.512;-0.382;2024-02-28T13:35:03;13.00;99.90
30037;DHT22;36325;51.512;-0.382;2024-02-28T13:37:31;13.00;99.90
30037;DHT22;36325;51.512;-0.382;2024-02-28T13:40:00;12.90;99.90
30037;DHT22;36325;51.512;-0.382;2024-02-28T13:42:28;11.80;99.90
30037;DHT22;36325;51.512;-0.382;2024-02-28T13:44:57;12.90;99.90
30037;DHT22;36325;51.512;-0.382;2024-02-28T13:47:25;12.90;99.90
30037;DHT22;36325;51.512;-0.382;2024-02-28T13:49:54;13.00;99.90
30037;DHT22;36325;51.512;-0.382;2024-02-28T13:52:21;13.00;99.90
30037;DHT22;36325;51.512;-0.382;2024-02-28T13:54:49;12.90;99.90
30037;DHT22;36325;51.512;-0.382;2024-02-28T13:57:22;12.90;99.90
30037;DHT22;36325;51.512;-0.382;2024-02-28T13:59:49;12.90;99.90
30037;DHT22;36325;51.512;-0.382;2024-02-28T14:02:21;13.00;99.90
30037;DHT22;36325;51.512;-0.382;2024-02-28T14:04:49;12.80;99.90
30037;DHT22;36325;51.512;-0.382;2024-02-28T14:07:16;12.80;99.90
30037;DHT22;36325;51.512;-0.382;2024-02-28T14:09:43;12.80;99.90
30037;DHT22;36325;51.512;-0.382;2024-02-28T14:12:12;12.70;99.90
30037;DHT22;36325;51.512;-0.382;2024-02-28T14:14:40;12.70;99.90
30037;DHT22;36325;51.512;-0.382;2024-02-28T14:17:08;12.70;99.90
30037;DHT22;36325;51.512;-0.382;2024-02-28T14:19:36;12.70;99.90
30037;DHT22;36325;51.512;-0.382;2024-02-28T14:22:05;12.60;99.90
30037;DHT22;36325;51.512;-0.382;2024-02-28T14:24:37;12.60;99.90
30037;DHT22;36325;51.512;-0.382;2024-02-28T14:27:05;12.50;99.90
30037;DHT22;36325;51.512;-0.382;2024-02-28T14:29:33;12.50;99.90
30037;DHT22;36325;51.512;-0.382;2024-02-28T14:32:00;12.40;99.90
30037;DHT22;36325;51.512;-0.382;2024-02-28T14:34:28;12.40;99.90
30037;DHT22;36325;51.512;-0.382;2024-02-28T14:36:58;12.30;99.90
30037;DHT22;36325;51.512;-0.382;2024-02-28T14:39:25;12.40;99.90
30037;DHT22;36325;51.512;-0.382;2024-02-28T14:41:53;12.30;99.90
30037;DHT22;36325;51.512;-0.382;2024-02-28T14:44:21;12.30;99.90
30037;DHT22;36325;51.512;-0.382;2024-02-28T14:46:48;12.20;99.90
30037;DHT22;36325;51.512;-0.382;2024-02-28T14:49:15;12.30;99.90
30037;DHT22;36325;51.512;-0.382;2024-02-28T14:51:43;12.20;99.90
30037;DHT22;36325;51.512;-0.382;2024-02-28T14:54:15;12.20;99.90
30037;DHT22;36325;51.512;-0.382;2024-02-28T14:56:42;12.10;99.90
30037;DHT22;36325;51.512;-0.382;2024-02-28T14:59:10;12.10;99.90
30037;DHT22;36325;51.512;-0.382;2024-02-28T15:01:37;12.10;99.90
30037;DHT22;36325;51.512;-0.382;2024-02-28T15:04:05;12.10;99.90
30037;DHT22;36325;51.512;-0.382;2024-02-28T15:06:32;12.10;99.90
30037;DHT22;36325;51.512;-0.382;2024-02-28T15:08:59;12.10;99.90
30037;DHT22;36325;51.512;-0.382;2024-02-28T15:11:27;12.00;99.90
30037;DHT22;36325;51.512;-0.382;2024-02-28T15:13:54;12.00;99.90
30037;DHT22;36325;51.512;-0.382;2024-02-28T15:16:21;11.90;99.90
30037;DHT22;36325;51.512;-0.382;2024-02-28T15:18:49;11.90;99.90
30037;DHT22;36325;51.512;-0.382;2024-02-28T15:21:16;11.80;99.90
30037;DHT22;36325;51.512;-0.382;2024-02-28T15:23:44;11.80;99.90
30037;DHT22;36325;51.512;-0.382;2024-02-28T15:26:11;11.70;99.90
30037;DHT22;36325;51.512;-0.382;2024-02-28T15:28:39;12.50;99.90
30037;DHT22;36325;51.512;-0.382;2024-02-28T15:31:06;11.70;99.90